Time;durP1;ratioP1;P1;durP2;ratioP2;P2;SDS_P1;SDS_P2;PMS_P1;PMS_P2;Temp;Humidity;BMP_temperature;BMP_pressure;BME280_temperature;BME280_humidity;BME280_pressure;Samples;Min_cycle;Max_cycle;Signal;HPM_P1;HPM_P2
2022/04/11 06:25:08;;;;;;;;;1.60;1.60;;;;;;;;1578985;27;83461;-72
2022/04/11 06:25:53;;;;;;;;;4.00;4.00;;;;;;;;1572149;27;83480;-71
2022/04/11 06:26:39;;;;;;;;;2.00;2.00;;;;;;;;1572100;27;83910;-72
2022/04/11 06:27:24;;;;;;;;;3.00;3.00;;;;;;;;1571167;27;84730;-72
2022/04/11 06:28:09;;;;;;;;;3.00;3.00;;;;;;;;1571781;27;83826;-72
2022/04/11 06:28:55;;;;;;;;;3.00;3.00;;;;;;;;1571923;27;83625;-72
2022/04/11 06:29:40;;;;;;;;;2.75;2.75;;;;;;;;1572285;27;83489;-72
2022/04/11 06:30:25;;;;;;;;;2.00;2.00;;;;;;;;1572171;27;83500;-72
2022/04/11 06:31:11;;;;;;;;;2.33;2.33;;;;;;;;1572228;27;83423;-72
2022/04/11 06:31:56;;;;;;;;;2.00;2.00;;;;;;;;1571930;27;83385;-72
2022/04/11 06:32:42;;;;;;;;;2.25;2.25;;;;;;;;1572251;27;83551;-72
2022/04/11 06:33:27;;;;;;;;;3.00;3.00;;;;;;;;1566047;27;83465;-72
2022/04/11 06:34:12;;;;;;;;;3.00;3.00;;;;;;;;1565860;27;83342;-71
2022/04/11 06:34:58;;;;;;;;;3.00;3.00;;;;;;;;1565936;27;83502;-72
2022/04/11 06:35:43;;;;;;;;;3.00;3.00;;;;;;;;1565753;27;83317;-72
2022/04/11 06:36:28;;;;;;;;;2.00;2.00;;;;;;;;1565775;27;83387;-72
2022/04/11 06:37:14;;;;;;;;;4.00;4.00;;;;;;;;1565630;27;83762;-71
2022/04/11 06:37:59;;;;;;;;;2.50;2.50;;;;;;;;1565778;27;83711;-72
2022/04/11 06:38:44;;;;;;;;;3.00;3.00;;;;;;;;1561778;27;83538;-72
2022/04/11 06:39:29;;;;;;;;;2.00;2.00;;;;;;;;1559518;28;83427;-71
2022/04/11 06:40:15;;;;;;;;;3.00;3.00;;;;;;;;1559603;28;83672;-71
2022/04/11 06:41:00;;;;;;;;;0.00;0.00;;;;;;;;1559622;28;83668;-71
2022/04/11 06:41:45;;;;;;;;;4.00;3.00;;;;;;;;1558998;28;83747;-71
2022/04/11 06:42:30;;;;;;;;;1.00;1.00;;;;;;;;1559039;28;83640;-72
2022/04/11 06:43:15;;;;;;;;;0.00;0.00;;;;;;;;1559152;28;83855;-71
2022/04/11 06:44:01;;;;;;;;;2.75;2.75;;;;;;;;1559560;28;83897;-71
2022/04/11 06:44:46;;;;;;;;;3.00;3.00;;;;;;;;1559397;28;83523;-72
2022/04/11 06:45:31;;;;;;;;;2.25;2.25;;;;;;;;1559484;28;83408;-72
2022/04/11 06:46:16;;;;;;;;;2.00;2.00;;;;;;;;1562289;28;83584;-71
2022/04/11 06:47:02;;;;;;;;;3.00;3.00;;;;;;;;1559165;28;83999;-72
2022/04/11 06:47:48;;;;;;;;;3.00;3.00;;;;;;;;1559594;28;84114;-72
2022/04/11 06:48:33;;;;;;;;;2.00;2.00;;;;;;;;1560299;27;84105;-84
2022/04/11 06:49:18;;;;;;;;;3.25;3.25;;;;;;;;1558860;28;85044;-72
2022/04/11 06:50:03;;;;;;;;;2.75;2.75;;;;;;;;1559031;28;83576;-72
2022/04/11 06:50:50;;;;;;;;;2.75;2.75;;;;;;;;1559273;28;84258;-71
2022/04/11 06:51:35;;;;;;;;;2.00;2.00;;;;;;;;1559698;28;83705;-72
2022/04/11 06:52:21;;;;;;;;;3.00;3.00;;;;;;;;1558972;28;87045;-72
2022/04/11 06:53:06;;;;;;;;;2.50;2.50;;;;;;;;1558465;27;83839;-71
2022/04/11 06:53:51;;;;;;;;;2.75;2.75;;;;;;;;1559684;27;84463;-72
2022/04/11 06:54:36;;;;;;;;;4.25;4.25;;;;;;;;1559364;28;84031;-71
2022/04/11 06:55:22;;;;;;;;;3.00;3.00;;;;;;;;1559398;28;83991;-72
2022/04/11 06:56:07;;;;;;;;;3.00;3.00;;;;;;;;1559394;27;83832;-72
2022/04/11 06:56:53;;;;;;;;;4.00;4.00;;;;;;;;1559505;28;83957;-72
2022/04/11 06:57:38;;;;;;;;;2.50;2.50;;;;;;;;1559470;27;83889;-71
2022/04/11 06:58:23;;;;;;;;;2.50;2.50;;;;;;;;1559363;28;84570;-72
2022/04/11 06:59:08;;;;;;;;;3.00;3.00;;;;;;;;1559256;28;83934;-71
2022/04/11 06:59:54;;;;;;;;;2.50;2.50;;;;;;;;1551029;27;83363;-72
2022/04/11 07:00:39;;;;;;;;;2.50;2.50;;;;;;;;1561487;27;84044;-72
2022/04/11 07:01:24;;;;;;;;;2.00;2.00;;;;;;;;1563095;27;83931;-71
2022/04/11 07:02:09;;;;;;;;;2.50;2.50;;;;;;;;1565467;27;84162;-72
2022/04/11 07:02:54;;;;;;;;;1.00;1.00;;;;;;;;1563304;27;84033;-72
2022/04/11 07:03:40;;;;;;;;;4.50;4.50;;;;;;;;1564234;27;83906;-72
2022/04/11 07:04:25;;;;;;;;;2.75;2.75;;;;;;;;1565582;27;83905;-71
2022/04/11 07:05:10;;;;;;;;;3.00;3.00;;;;;;;;1565588;27;84617;-71
2022/04/11 07:05:55;;;;;;;;;3.25;3.25;;;;;;;;1565664;27;83891;-71
2022/04/11 07:06:40;;;;;;;;;2.00;2.00;;;;;;;;1565677;27;84072;-71
2022/04/11 07:07:26;;;;;;;;;1.75;1.75;;;;;;;;1565484;27;83894;-71
2022/04/11 07:08:11;;;;;;;;;2.00;2.00;;;;;;;;1565634;27;83380;-71
2022/04/11 07:08:56;;;;;;;;;2.75;2.75;;;;;;;;1565697;27;83242;-70
2022/04/11 07:09:41;;;;;;;;;2.00;2.00;;;;;;;;1561051;27;83590;-71
2022/04/11 07:10:26;;;;;;;;;3.50;3.50;;;;;;;;1558784;28;83537;-70
2022/04/11 07:11:12;;;;;;;;;3.50;3.50;;;;;;;;1559024;28;83482;-71
2022/04/11 07:11:57;;;;;;;;;3.00;3.00;;;;;;;;1559338;28;83347;-70
2022/04/11 07:12:42;;;;;;;;;3.25;3.25;;;;;;;;1559446;27;82881;-71
2022/04/11 07:13:28;;;;;;;;;1.75;1.75;;;;;;;;1559113;27;83544;-70
2022/04/11 07:14:13;;;;;;;;;2.25;2.25;;;;;;;;1558771;27;83330;-71
2022/04/11 07:15:02;;;;;;;;;2.00;2.00;;;;;;;;1559387;27;83255;-71
2022/04/11 07:15:48;;;;;;;;;3.00;3.00;;;;;;;;1559077;27;83413;-71
2022/04/11 07:16:33;;;;;;;;;2.50;2.50;;;;;;;;1558700;28;83640;-71
2022/04/11 07:17:18;;;;;;;;;2.00;2.00;;;;;;;;1563436;27;83333;-72
2022/04/11 07:18:03;;;;;;;;;4.00;4.00;;;;;;;;1556485;28;83441;-71
2022/04/11 07:18:49;;;;;;;;;3.00;3.00;;;;;;;;1558930;28;83207;-72
2022/04/11 07:19:34;;;;;;;;;3.00;3.00;;;;;;;;1558939;28;83584;-72
2022/04/11 07:20:19;;;;;;;;;3.00;3.00;;;;;;;;1559239;28;83455;-74
2022/04/11 07:21:04;;;;;;;;;2.00;2.00;;;;;;;;1559389;27;83519;-72
2022/04/11 07:21:50;;;;;;;;;2.00;2.00;;;;;;;;1559456;28;83332;-72
2022/04/11 07:22:35;;;;;;;;;2.00;2.00;;;;;;;;1558646;28;83653;-78
2022/04/11 07:23:21;;;;;;;;;3.00;3.00;;;;;;;;1558972;27;83641;-78
2022/04/11 07:24:06;;;;;;;;;3.00;3.00;;;;;;;;1559132;28;83256;-77
2022/04/11 07:24:52;;;;;;;;;2.25;2.25;;;;;;;;1559282;28;83206;-79
2022/04/11 07:25:37;;;;;;;;;4.50;4.50;;;;;;;;1559377;27;83424;-79
2022/04/11 07:26:22;;;;;;;;;3.00;3.00;;;;;;;;1559317;28;83472;-79
2022/04/11 07:27:08;;;;;;;;;3.00;3.00;;;;;;;;1559295;28;83398;-79
2022/04/11 07:27:56;;;;;;;;;2.75;2.75;;;;;;;;1559476;28;83204;-78
2022/04/11 07:28:41;;;;;;;;;2.20;2.20;;;;;;;;1559327;27;83473;-78
2022/04/11 07:29:27;;;;;;;;;2.50;2.50;;;;;;;;1562074;28;83573;-78
2022/04/11 07:30:12;;;;;;;;;2.00;2.00;;;;;;;;1559008;27;83907;-78
2022/04/11 07:30:57;;;;;;;;;4.50;4.50;;;;;;;;1559398;27;83179;-78
2022/04/11 07:31:42;;;;;;;;;2.25;2.25;;;;;;;;1559391;28;83982;-78
2022/04/11 07:32:28;;;;;;;;;3.25;3.25;;;;;;;;1559496;27;83669;-78
2022/04/11 07:33:13;;;;;;;;;2.25;2.25;;;;;;;;1559131;28;83813;-78
2022/04/11 07:33:58;;;;;;;;;3.00;3.00;;;;;;;;1559301;28;83449;-78
2022/04/11 07:34:43;;;;;;;;;2.00;2.00;;;;;;;;1559409;28;83464;-78
2022/04/11 07:35:28;;;;;;;;;3.33;3.33;;;;;;;;1559284;28;83806;-78
2022/04/11 07:36:14;;;;;;;;;2.67;2.67;;;;;;;;1561269;27;84681;-78
2022/04/11 07:36:59;;;;;;;;;2.67;2.67;;;;;;;;1561003;28;83455;-78
2022/04/11 07:37:44;;;;;;;;;2.00;2.00;;;;;;;;1559337;28;83590;-78
2022/04/11 07:38:30;;;;;;;;;3.33;3.33;;;;;;;;1554591;28;84501;-78
2022/04/11 07:39:15;;;;;;;;;3.00;3.00;;;;;;;;1554753;28;83175;-78
2022/04/11 07:40:01;;;;;;;;;4.00;4.00;;;;;;;;1554911;28;83719;-78
2022/04/11 07:40:47;;;;;;;;;2.75;2.75;;;;;;;;1554970;28;83627;-78
2022/04/11 07:41:32;;;;;;;;;2.00;2.00;;;;;;;;1555078;28;83936;-78
2022/04/11 07:42:17;;;;;;;;;2.33;2.33;;;;;;;;1554994;28;83690;-79
2022/04/11 07:43:03;;;;;;;;;2.00;2.00;;;;;;;;1555111;28;83641;-78
2022/04/11 07:43:48;;;;;;;;;3.00;3.00;;;;;;;;1554850;28;84025;-78
2022/04/11 07:44:33;;;;;;;;;0.67;0.67;;;;;;;;1554503;28;83950;-78
2022/04/11 07:45:19;;;;;;;;;0.33;0.33;;;;;;;;1555030;28;83641;-77
2022/04/11 07:46:05;;;;;;;;;2.67;2.67;;;;;;;;1554988;28;83564;-78
2022/04/11 07:46:50;;;;;;;;;1.75;1.75;;;;;;;;1554872;28;83641;-78
2022/04/11 07:47:35;;;;;;;;;2.67;2.67;;;;;;;;1555040;28;85224;-78
2022/04/11 07:48:21;;;;;;;;;1.67;1.67;;;;;;;;1554547;28;83791;-78
2022/04/11 07:49:06;;;;;;;;;1.33;1.33;;;;;;;;1554793;28;83607;-78
2022/04/11 07:49:51;;;;;;;;;2.33;2.33;;;;;;;;1555075;28;83309;-78
2022/04/11 07:50:36;;;;;;;;;3.00;3.00;;;;;;;;1557454;28;85637;-78
2022/04/11 07:51:21;;;;;;;;;2.00;2.00;;;;;;;;1554215;28;85223;-78
2022/04/11 07:52:07;;;;;;;;;2.00;2.00;;;;;;;;1554546;28;84279;-78
2022/04/11 07:52:53;;;;;;;;;2.00;2.00;;;;;;;;1555622;28;83896;-79
2022/04/11 07:53:38;;;;;;;;;3.00;3.00;;;;;;;;1561055;27;84409;-78
2022/04/11 07:54:23;;;;;;;;;2.00;2.00;;;;;;;;1561059;28;84545;-78
2022/04/11 07:55:09;;;;;;;;;2.00;2.00;;;;;;;;1560647;28;86067;-78
2022/04/11 07:55:54;;;;;;;;;3.00;3.00;;;;;;;;1560615;28;84507;-78
2022/04/11 07:56:39;;;;;;;;;1.00;1.00;;;;;;;;1560772;28;83164;-78
2022/04/11 07:57:24;;;;;;;;;2.00;2.00;;;;;;;;1561089;28;84191;-79
2022/04/11 07:58:10;;;;;;;;;2.00;2.00;;;;;;;;1561131;28;84580;-79
2022/04/11 07:58:55;;;;;;;;;2.00;2.00;;;;;;;;1560816;27;83257;-78
2022/04/11 07:59:41;;;;;;;;;2.00;2.00;;;;;;;;1561104;27;83657;-79
2022/04/11 08:00:26;;;;;;;;;2.67;2.67;;;;;;;;1560542;28;85339;-78
2022/04/11 08:01:16;;;;;;;;;2.00;2.00;;;;;;;;1560636;28;84028;-78
2022/04/11 08:02:01;;;;;;;;;3.00;3.00;;;;;;;;1560024;28;85663;-78
2022/04/11 08:02:51;;;;;;;;;2.00;2.00;;;;;;;;1552350;28;86423;-79
2022/04/11 08:03:36;;;;;;;;;2.25;2.25;;;;;;;;1554413;28;84020;-78
2022/04/11 08:04:21;;;;;;;;;2.00;2.00;;;;;;;;1554570;28;84229;-80
2022/04/11 08:05:06;;;;;;;;;2.00;2.00;;;;;;;;1554841;28;84021;-81
2022/04/11 08:05:51;;;;;;;;;1.67;1.67;;;;;;;;1554836;28;83944;-79
2022/04/11 08:06:37;;;;;;;;;1.00;1.00;;;;;;;;1554632;28;84461;-84
2022/04/11 08:07:22;;;;;;;;;1.00;1.00;;;;;;;;1554855;28;87147;-78
2022/04/11 08:08:07;;;;;;;;;1.00;1.00;;;;;;;;1560501;28;83948;-75
2022/04/11 08:08:52;;;;;;;;;2.00;2.00;;;;;;;;1560765;28;84146;-77
2022/04/11 08:09:37;;;;;;;;;0.00;0.00;;;;;;;;1561069;28;84068;-73
2022/04/11 08:10:23;;;;;;;;;3.00;3.00;;;;;;;;1559798;28;85186;-78
2022/04/11 08:11:08;;;;;;;;;2.33;2.33;;;;;;;;1554368;28;84480;-75
2022/04/11 08:11:53;;;;;;;;;1.00;1.00;;;;;;;;1554331;28;85107;-74
2022/04/11 08:12:38;;;;;;;;;1.00;1.00;;;;;;;;1557530;28;84486;-78
2022/04/11 08:13:23;;;;;;;;;1.00;1.00;;;;;;;;1554356;27;83480;-77
2022/04/11 08:14:09;;;;;;;;;2.00;2.00;;;;;;;;1554655;28;83453;-77
2022/04/11 08:14:54;;;;;;;;;1.33;1.33;;;;;;;;1558947;28;83490;-76
2022/04/11 08:15:40;;;;;;;;;2.00;2.00;;;;;;;;1560025;27;83561;-77
2022/04/11 08:16:25;;;;;;;;;1.00;1.00;;;;;;;;1561034;27;83506;-77
2022/04/11 08:17:10;;;;;;;;;3.00;3.00;;;;;;;;1558103;28;83181;-77
2022/04/11 08:17:56;;;;;;;;;2.00;2.00;;;;;;;;1554690;28;83529;-77
2022/04/11 08:18:41;;;;;;;;;3.00;3.00;;;;;;;;1554840;28;83438;-77
2022/04/11 08:19:26;;;;;;;;;3.00;3.00;;;;;;;;1554823;28;83494;-77
2022/04/11 08:20:12;;;;;;;;;2.00;2.00;;;;;;;;1554814;28;83548;-77
2022/04/11 08:20:57;;;;;;;;;2.00;2.00;;;;;;;;1554985;28;83310;-77
2022/04/11 08:21:42;;;;;;;;;1.00;1.00;;;;;;;;1554745;28;82992;-77
2022/04/11 08:22:27;;;;;;;;;2.00;2.00;;;;;;;;1554576;28;83554;-77
2022/04/11 08:23:13;;;;;;;;;1.67;1.67;;;;;;;;1554458;28;84570;-77
2022/04/11 08:23:58;;;;;;;;;1.00;1.00;;;;;;;;1554851;28;83048;-77
2022/04/11 08:24:43;;;;;;;;;1.00;1.00;;;;;;;;1554565;28;83458;-78
2022/04/11 08:25:28;;;;;;;;;1.00;1.00;;;;;;;;1554195;28;83538;-77
2022/04/11 08:26:13;;;;;;;;;1.00;1.00;;;;;;;;1554302;28;83273;-77
2022/04/11 08:26:59;;;;;;;;;2.00;2.00;;;;;;;;1554543;28;83532;-77
2022/04/11 08:27:44;;;;;;;;;3.00;3.00;;;;;;;;1554778;28;83144;-77
2022/04/11 08:28:29;;;;;;;;;2.00;2.00;;;;;;;;1554702;28;83572;-77
2022/04/11 08:29:15;;;;;;;;;2.00;2.00;;;;;;;;1554612;28;83324;-77
2022/04/11 08:30:00;;;;;;;;;2.00;2.00;;;;;;;;1555414;28;83768;-78
2022/04/11 08:30:45;;;;;;;;;2.33;2.33;;;;;;;;1560992;27;83495;-77
2022/04/11 08:31:31;;;;;;;;;1.67;1.67;;;;;;;;1560716;27;83021;-77
2022/04/11 08:32:18;;;;;;;;;0.00;0.00;;;;;;;;1555950;28;83276;-77
2022/04/11 08:33:03;;;;;;;;;2.00;2.00;;;;;;;;1554239;28;83355;-77
2022/04/11 08:33:48;;;;;;;;;2.00;2.00;;;;;;;;1556922;28;83495;-77
2022/04/11 08:34:34;;;;;;;;;3.00;3.00;;;;;;;;1554326;28;84287;-77
2022/04/11 08:35:20;;;;;;;;;2.00;2.00;;;;;;;;1554672;28;83712;-77
2022/04/11 08:36:05;;;;;;;;;2.75;2.75;;;;;;;;1554672;28;83395;-77
2022/04/11 08:36:50;;;;;;;;;2.00;2.00;;;;;;;;1559687;28;83527;-78
2022/04/11 08:37:37;;;;;;;;;2.00;2.00;;;;;;;;1560887;28;84036;-78
2022/04/11 08:38:22;;;;;;;;;2.50;2.50;;;;;;;;1560796;28;84043;-78
2022/04/11 08:39:07;;;;;;;;;1.67;1.67;;;;;;;;1560937;28;83617;-78
2022/04/11 08:39:53;;;;;;;;;1.33;1.33;;;;;;;;1560937;28;83359;-77
2022/04/11 08:40:38;;;;;;;;;3.00;3.00;;;;;;;;1560956;28;84395;-77
2022/04/11 08:41:26;;;;;;;;;1.33;1.33;;;;;;;;1560431;27;83399;-77
2022/04/11 08:42:12;;;;;;;;;2.50;2.50;;;;;;;;1559831;28;85438;-78
2022/04/11 08:42:59;;;;;;;;;2.00;2.00;;;;;;;;1560379;28;83825;-77
2022/04/11 08:43:44;;;;;;;;;3.00;3.00;;;;;;;;1560796;28;84017;-77
2022/04/11 08:44:31;;;;;;;;;2.00;2.00;;;;;;;;1560743;28;83683;-78
2022/04/11 08:45:21;;;;;;;;;1.00;1.00;;;;;;;;1560909;27;83987;-77
2022/04/11 08:46:06;;;;;;;;;2.75;2.75;;;;;;;;1560810;28;83804;-78
2022/04/11 08:46:54;;;;;;;;;4.00;4.00;;;;;;;;1557678;28;83458;-77
2022/04/11 08:47:39;;;;;;;;;2.00;2.00;;;;;;;;1553488;28;87803;-77
2022/04/11 08:48:24;;;;;;;;;2.00;2.00;;;;;;;;1553423;28;83453;-77
2022/04/11 08:49:10;;;;;;;;;2.67;2.67;;;;;;;;1554300;28;84029;-77
2022/04/11 08:49:55;;;;;;;;;3.67;3.67;;;;;;;;1554852;28;83427;-77
2022/04/11 08:50:40;;;;;;;;;1.00;1.00;;;;;;;;1554748;28;83540;-77
2022/04/11 08:51:26;;;;;;;;;2.67;2.67;;;;;;;;1554481;28;83387;-77
2022/04/11 08:52:11;;;;;;;;;2.00;2.00;;;;;;;;1554445;28;83888;-77
2022/04/11 08:52:57;;;;;;;;;2.00;2.00;;;;;;;;1554223;28;86416;-77
2022/04/11 08:53:42;;;;;;;;;2.00;2.00;;;;;;;;1554115;28;84440;-77
2022/04/11 08:54:28;;;;;;;;;1.67;1.67;;;;;;;;1554342;28;83724;-77
2022/04/11 08:55:14;;;;;;;;;3.00;3.00;;;;;;;;1554043;28;85113;-77
2022/04/11 08:55:59;;;;;;;;;2.25;2.25;;;;;;;;1557000;28;83940;-77
2022/04/11 08:56:44;;;;;;;;;3.00;3.00;;;;;;;;1554168;28;83117;-77
2022/04/11 08:57:30;;;;;;;;;2.00;2.00;;;;;;;;1554349;28;83961;-77
2022/04/11 08:58:15;;;;;;;;;3.00;3.00;;;;;;;;1554525;28;84522;-77
2022/04/11 08:59:01;;;;;;;;;2.00;2.00;;;;;;;;1554497;28;84275;-77
2022/04/11 08:59:46;;;;;;;;;1.00;1.00;;;;;;;;1554497;28;83982;-77
2022/04/11 09:00:32;;;;;;;;;2.00;2.00;;;;;;;;1554576;28;84112;-77
2022/04/11 09:01:17;;;;;;;;;2.00;2.00;;;;;;;;1554555;28;84483;-77
2022/04/11 09:02:07;;;;;;;;;1.33;1.33;;;;;;;;1554313;28;84380;-77
2022/04/11 09:02:52;;;;;;;;;2.00;2.00;;;;;;;;1554341;28;84065;-77
2022/04/11 09:03:38;;;;;;;;;3.00;3.00;;;;;;;;1554470;28;84131;-77
2022/04/11 09:04:23;;;;;;;;;2.00;2.00;;;;;;;;1554577;28;84153;-77
2022/04/11 09:05:09;;;;;;;;;1.33;1.33;;;;;;;;1560758;28;84201;-77
2022/04/11 09:06:04;;;;;;;;;2.00;2.00;;;;;;;;1560080;28;85885;-77
2022/04/11 09:06:56;;;;;;;;;2.00;2.00;;;;;;;;1557051;28;85731;-77
2022/04/11 09:07:50;;;;;;;;;2.00;2.00;;;;;;;;1553869;28;85389;-77
2022/04/11 09:08:39;;;;;;;;;1.75;1.75;;;;;;;;1554208;28;84330;-78
2022/04/11 09:09:38;;;;;;;;;2.50;2.50;;;;;;;;1554362;28;84021;-78
2022/04/11 09:10:27;;;;;;;;;2.25;2.25;;;;;;;;1554467;28;86557;-77
2022/04/11 09:11:12;;;;;;;;;2.00;2.00;;;;;;;;1560192;28;84702;-77
2022/04/11 09:11:58;;;;;;;;;2.00;2.00;;;;;;;;1557594;28;83085;-77
2022/04/11 09:12:47;;;;;;;;;1.00;1.00;;;;;;;;1554352;28;84077;-78
2022/04/11 09:13:49;;;;;;;;;1.00;1.00;;;;;;;;1554489;28;83866;-77
2022/04/11 09:14:37;;;;;;;;;3.00;3.00;;;;;;;;1554491;28;84181;-77
2022/04/11 09:15:23;;;;;;;;;1.80;1.80;;;;;;;;1554422;28;83968;-77
2022/04/11 09:16:09;;;;;;;;;2.00;2.00;;;;;;;;1554374;28;84202;-77
2022/04/11 09:16:54;;;;;;;;;2.00;2.00;;;;;;;;1554802;28;84436;-77
2022/04/11 09:17:41;;;;;;;;;2.00;2.00;;;;;;;;1553914;28;85487;-77
2022/04/11 09:18:44;;;;;;;;;2.00;2.00;;;;;;;;1556833;28;84036;-78
2022/04/11 09:19:29;;;;;;;;;2.80;2.80;;;;;;;;1554318;28;83496;-77
2022/04/11 09:20:16;;;;;;;;;1.50;1.50;;;;;;;;1554424;28;83267;-77
2022/04/11 09:21:01;;;;;;;;;2.00;2.00;;;;;;;;1554533;28;83439;-77
2022/04/11 09:21:46;;;;;;;;;1.00;1.00;;;;;;;;1553820;28;85246;-77
2022/04/11 09:22:32;;;;;;;;;2.00;2.00;;;;;;;;1554046;28;83606;-77
2022/04/11 09:23:18;;;;;;;;;1.75;1.75;;;;;;;;1554100;28;83275;-77
2022/04/11 09:24:14;;;;;;;;;1.60;1.60;;;;;;;;1558663;27;83333;-77
2022/04/11 09:25:10;;;;;;;;;2.00;2.00;;;;;;;;1560055;27;83785;-77
2022/04/11 09:25:58;;;;;;;;;2.00;2.00;;;;;;;;1556658;27;83160;-77
2022/04/11 09:26:43;;;;;;;;;0.60;0.60;;;;;;;;1554401;28;83472;-77
2022/04/11 09:27:28;;;;;;;;;1.00;1.00;;;;;;;;1554438;28;83260;-77
2022/04/11 09:28:13;;;;;;;;;1.00;1.00;;;;;;;;1554478;28;83244;-77
2022/04/11 09:28:59;;;;;;;;;1.00;1.00;;;;;;;;1554413;28;83471;-77
2022/04/11 09:29:44;;;;;;;;;1.00;1.00;;;;;;;;1554518;28;83382;-76
2022/04/11 09:30:32;;;;;;;;;2.00;2.00;;;;;;;;1554489;28;83337;-76
2022/04/11 09:31:20;;;;;;;;;3.60;3.60;;;;;;;;1555194;28;83209;-73
2022/04/11 09:32:06;;;;;;;;;2.00;2.00;;;;;;;;1554409;28;83300;-73
2022/04/11 09:32:52;;;;;;;;;3.00;3.00;;;;;;;;1554328;28;83730;-74
2022/04/11 09:33:39;;;;;;;;;1.60;1.60;;;;;;;;1554339;28;83466;-73
2022/04/11 09:34:27;;;;;;;;;1.40;1.40;;;;;;;;1559949;28;85250;-77
2022/04/11 09:35:18;;;;;;;;;1.20;1.20;;;;;;;;1560161;28;83455;-77
2022/04/11 09:36:04;;;;;;;;;2.20;2.20;;;;;;;;1557218;28;83261;-77
2022/04/11 09:36:50;;;;;;;;;2.00;2.00;;;;;;;;1555051;28;83595;-78
2022/04/11 09:37:35;;;;;;;;;0.60;0.60;;;;;;;;1558213;28;83396;-78
2022/04/11 09:38:21;;;;;;;;;2.00;2.00;;;;;;;;1560633;28;83527;-78
2022/04/11 09:39:06;;;;;;;;;0.25;0.25;;;;;;;;1560770;27;83302;-77
2022/04/11 09:39:57;;;;;;;;;3.00;3.00;;;;;;;;1560460;28;83463;-77
2022/04/11 09:40:43;;;;;;;;;2.20;2.20;;;;;;;;1553437;28;86096;-77
2022/04/11 09:41:29;;;;;;;;;1.60;1.60;;;;;;;;1556618;28;83077;-78
2022/04/11 09:42:14;;;;;;;;;1.40;1.40;;;;;;;;1554163;28;83981;-77
2022/04/11 09:43:00;;;;;;;;;2.00;2.00;;;;;;;;1554337;28;84073;-77
2022/04/11 09:43:45;;;;;;;;;2.00;2.00;;;;;;;;1554273;28;83721;-78
2022/04/11 09:44:31;;;;;;;;;2.25;2.25;;;;;;;;1554363;28;84000;-77
2022/04/11 09:45:16;;;;;;;;;0.00;0.00;;;;;;;;1554462;28;83958;-76
2022/04/11 09:46:02;;;;;;;;;0.25;0.25;;;;;;;;1555395;28;83264;-77
2022/04/11 09:46:49;;;;;;;;;0.40;0.40;;;;;;;;1560608;28;83570;-78
2022/04/11 09:47:34;;;;;;;;;2.20;2.20;;;;;;;;1560447;27;85400;-78
2022/04/11 09:48:27;;;;;;;;;1.25;1.25;;;;;;;;1560619;28;83340;-78
2022/04/11 09:49:13;;;;;;;;;2.00;2.00;;;;;;;;1560303;27;85814;-77
2022/04/11 09:49:59;;;;;;;;;2.00;2.00;;;;;;;;1560214;28;83489;-78
2022/04/11 09:50:44;;;;;;;;;1.00;1.00;;;;;;;;1560344;28;84220;-77
2022/04/11 09:51:29;;;;;;;;;0.25;0.25;;;;;;;;1555507;27;84986;-77
2022/04/11 09:52:15;;;;;;;;;1.75;1.75;;;;;;;;1554738;28;83048;-77
2022/04/11 09:53:06;;;;;;;;;3.00;3.00;;;;;;;;1554455;28;83627;-78
2022/04/11 09:53:52;;;;;;;;;1.00;1.00;;;;;;;;1554953;28;84873;-78
2022/04/11 09:54:56;;;;;;;;;1.75;1.75;;;;;;;;1554357;28;83768;-78
2022/04/11 09:55:43;;;;;;;;;1.80;1.80;;;;;;;;1553620;28;85270;-77
2022/04/11 09:56:28;;;;;;;;;1.60;1.60;;;;;;;;1554009;28;83680;-78
2022/04/11 09:57:15;;;;;;;;;1.75;1.75;;;;;;;;1555477;28;83867;-78
2022/04/11 09:58:02;;;;;;;;;1.00;1.00;;;;;;;;1553361;28;85106;-78
2022/04/11 09:58:47;;;;;;;;;2.00;2.00;;;;;;;;1553598;28;83488;-78
2022/04/11 09:59:33;;;;;;;;;0.00;0.00;;;;;;;;1553287;28;85494;-77
2022/04/11 10:00:18;;;;;;;;;0.00;0.00;;;;;;;;1553523;28;85681;-77
2022/04/11 10:01:04;;;;;;;;;1.00;1.00;;;;;;;;1554390;28;83545;-78
2022/04/11 10:01:50;;;;;;;;;1.00;1.00;;;;;;;;1553739;28;83834;-75
2022/04/11 10:02:36;;;;;;;;;1.00;1.00;;;;;;;;1553982;28;83556;-75
2022/04/11 10:03:25;;;;;;;;;0.00;0.00;;;;;;;;1556713;28;83324;-75
2022/04/11 10:04:10;;;;;;;;;2.00;2.00;;;;;;;;1554036;28;84029;-75
2022/04/11 10:04:57;;;;;;;;;0.75;0.75;;;;;;;;1553359;28;86236;-75
2022/04/11 10:05:42;;;;;;;;;0.60;0.60;;;;;;;;1553550;28;84016;-75
2022/04/11 10:06:27;;;;;;;;;1.00;1.00;;;;;;;;1557492;28;84223;-75
2022/04/11 10:07:13;;;;;;;;;1.00;1.00;;;;;;;;1560247;27;84389;-75
2022/04/11 10:07:59;;;;;;;;;0.00;0.00;;;;;;;;1559651;27;84322;-75
2022/04/11 10:08:47;;;;;;;;;1.00;1.00;;;;;;;;1560327;27;84133;-74
2022/04/11 10:09:33;;;;;;;;;0.80;0.80;;;;;;;;1559831;27;84019;-75
2022/04/11 10:10:19;;;;;;;;;0.00;0.00;;;;;;;;1560266;27;83705;-76
2022/04/11 10:11:04;;;;;;;;;1.40;1.40;;;;;;;;1560200;27;85731;-76
2022/04/11 10:11:53;;;;;;;;;0.75;0.75;;;;;;;;1560137;27;84434;-76
2022/04/11 10:12:39;;;;;;;;;0.60;0.60;;;;;;;;1560167;27;84447;-76
2022/04/11 10:13:24;;;;;;;;;1.00;1.00;;;;;;;;1559842;27;86464;-75
2022/04/11 10:14:10;;;;;;;;;0.00;0.00;;;;;;;;1559941;28;83199;-76
2022/04/11 10:14:55;;;;;;;;;0.00;0.00;;;;;;;;1559791;28;87114;-75
2022/04/11 10:15:41;;;;;;;;;0.00;0.00;;;;;;;;1558277;27;83954;-76
2022/04/11 10:16:26;;;;;;;;;1.40;1.40;;;;;;;;1559929;28;83372;-76
2022/04/11 10:17:12;;;;;;;;;0.00;0.00;;;;;;;;1560334;27;84076;-76
2022/04/11 10:17:57;;;;;;;;;0.00;0.00;;;;;;;;1560138;27;84443;-76
2022/04/11 10:18:42;;;;;;;;;0.00;0.00;;;;;;;;1560130;28;84120;-76
2022/04/11 10:19:31;;;;;;;;;0.25;0.25;;;;;;;;1559686;27;84335;-76
2022/04/11 10:20:24;;;;;;;;;0.00;0.00;;;;;;;;1559762;28;84324;-76
2022/04/11 10:21:13;;;;;;;;;1.00;1.00;;;;;;;;1556825;28;84500;-76
2022/04/11 10:22:05;;;;;;;;;0.00;0.00;;;;;;;;1554008;28;84026;-76
2022/04/11 10:22:55;;;;;;;;;1.00;1.00;;;;;;;;1553820;28;84148;-76
2022/04/11 10:23:58;;;;;;;;;1.00;1.00;;;;;;;;1553933;28;84225;-76
2022/04/11 10:25:01;;;;;;;;;0.00;0.00;;;;;;;;1553920;28;84243;-76
2022/04/11 10:25:47;;;;;;;;;0.60;0.60;;;;;;;;1553808;28;84598;-76
2022/04/11 10:26:56;;;;;;;;;1.60;1.60;;;;;;;;1556495;28;83432;-75
2022/04/11 10:27:41;;;;;;;;;0.00;0.00;;;;;;;;1553833;28;83312;-76
2022/04/11 10:28:27;;;;;;;;;0.25;0.25;;;;;;;;1553968;28;83854;-76
2022/04/11 10:29:32;;;;;;;;;0.60;0.60;;;;;;;;1553955;28;83440;-76
2022/04/11 10:30:27;;;;;;;;;0.00;0.00;;;;;;;;1554003;28;83131;-76
2022/04/11 10:31:13;;;;;;;;;0.40;0.40;;;;;;;;1554658;28;83444;-76
2022/04/11 10:32:09;;;;;;;;;1.00;1.00;;;;;;;;1553939;28;83475;-76
2022/04/11 10:32:55;;;;;;;;;1.00;1.00;;;;;;;;1553957;28;83326;-76
2022/04/11 10:33:44;;;;;;;;;0.60;0.60;;;;;;;;1553824;28;83372;-77
2022/04/11 10:34:48;;;;;;;;;0.60;0.60;;;;;;;;1553999;28;83342;-76
2022/04/11 10:35:41;;;;;;;;;1.20;1.20;;;;;;;;1554209;28;83119;-76
2022/04/11 10:36:36;;;;;;;;;1.20;1.20;;;;;;;;1553889;28;83367;-76
2022/04/11 10:37:28;;;;;;;;;0.00;0.00;;;;;;;;1553622;28;84277;-76
2022/04/11 10:38:15;;;;;;;;;0.20;0.20;;;;;;;;1553396;28;83487;-76
2022/04/11 10:39:16;;;;;;;;;0.00;0.00;;;;;;;;1553332;28;83592;-76
2022/04/11 10:40:16;;;;;;;;;1.80;1.80;;;;;;;;1553809;28;83550;-75
2022/04/11 10:41:01;;;;;;;;;1.20;1.20;;;;;;;;1553908;28;83441;-74
2022/04/11 10:41:56;;;;;;;;;0.00;0.00;;;;;;;;1553919;28;83692;-74
2022/04/11 10:42:59;;;;;;;;;0.20;0.20;;;;;;;;1553982;28;83228;-76
2022/04/11 10:44:04;;;;;;;;;1.20;1.20;;;;;;;;1553758;28;83389;-76
2022/04/11 10:44:54;;;;;;;;;0.00;0.00;;;;;;;;1553748;28;83259;-76
2022/04/11 10:45:40;;;;;;;;;1.00;1.00;;;;;;;;1554029;28;83578;-76
2022/04/11 10:46:26;;;;;;;;;0.00;0.00;;;;;;;;1553359;28;83499;-76
2022/04/11 10:47:15;;;;;;;;;0.50;0.50;;;;;;;;1553721;28;83391;-76
2022/04/11 10:48:00;;;;;;;;;1.00;1.00;;;;;;;;1553840;28;83501;-76
2022/04/11 10:49:07;;;;;;;;;0.25;0.25;;;;;;;;1554034;28;83454;-76
2022/04/11 10:49:53;;;;;;;;;1.80;1.80;;;;;;;;1554099;28;83046;-76
2022/04/11 10:50:39;;;;;;;;;0.80;0.80;;;;;;;;1554868;28;83216;-76
2022/04/11 10:51:25;;;;;;;;;2.00;2.00;;;;;;;;1562886;27;84329;-80
2022/04/11 10:52:29;;;;;;;;;0.80;0.80;;;;;;;;1559851;28;83364;-76
2022/04/11 10:53:16;;;;;;;;;1.00;1.00;;;;;;;;1559863;28;83901;-76
2022/04/11 10:54:15;;;;;;;;;1.00;1.00;;;;;;;;1560153;28;84207;-76
2022/04/11 10:55:10;;;;;;;;;1.20;1.20;;;;;;;;1560097;27;83670;-76
2022/04/11 10:56:02;;;;;;;;;0.60;0.60;;;;;;;;1560165;28;83505;-76
2022/04/11 10:56:55;;;;;;;;;1.00;1.00;;;;;;;;1560338;27;83375;-76
2022/04/11 10:57:41;;;;;;;;;0.00;0.00;;;;;;;;1560335;27;83576;-76
2022/04/11 10:58:58;;;;;;;;;1.00;1.00;;;;;;;;1559813;27;83317;-76
2022/04/11 11:00:02;;;;;;;;;0.00;0.00;;;;;;;;1528842;28;85107;-76
2022/04/11 11:00:48;;;;;;;;;1.20;1.20;;;;;;;;1534177;28;83565;-77
2022/04/11 11:01:46;;;;;;;;;0.00;0.00;;;;;;;;1539327;28;83652;-77
2022/04/11 11:02:56;;;;;;;;;1.00;1.00;;;;;;;;1540932;28;83683;-76
2022/04/11 11:04:08;;;;;;;;;1.00;1.00;;;;;;;;1540715;28;84052;-76
2022/04/11 11:04:53;;;;;;;;;1.20;1.20;;;;;;;;1537064;28;84053;-77
2022/04/11 11:05:40;;;;;;;;;1.00;1.00;;;;;;;;1539777;28;83549;-76
2022/04/11 11:06:25;;;;;;;;;1.60;1.60;;;;;;;;1534804;28;86909;-76
2022/04/11 11:07:26;;;;;;;;;1.00;1.00;;;;;;;;1535042;28;83727;-76
2022/04/11 11:08:15;;;;;;;;;2.00;2.00;;;;;;;;1539079;28;83170;-76